Time;durP1;ratioP1;P1;durP2;ratioP2;P2;SDS_P1;SDS_P2;PMS_P1;PMS_P2;Temp;Humidity;BMP_temperature;BMP_pressure;BME280_temperature;BME280_humidity;BME280_pressure;Samples;Min_cycle;Max_cycle;Signal;HPM_P1;HPM_P2
2021/03/03 04:03:21;;;;;;;7.10;3.80;;;;;;;0.53;100.00;100355.81;1705151;81;946162;-69
2021/03/03 04:05:49;;;;;;;8.25;4.15;;;;;;;0.54;100.00;100365.14;1735021;81;21023;-64
2021/03/03 04:08:20;;;;;;;6.60;3.42;;;;;;;0.54;100.00;100368.17;1737835;81;21157;-63
2021/03/03 04:10:48;;;;;;;9.45;4.00;;;;;;;0.54;100.00;100368.98;1719046;82;22654;-64
2021/03/03 04:13:17;;;;;;;6.25;3.70;;;;;;;0.56;100.00;100373.98;1737694;80;21568;-72
2021/03/03 04:15:46;;;;;;;6.00;3.15;;;;;;;0.55;100.00;100377.02;1719805;81;21548;-62
2021/03/03 04:18:14;;;;;;;6.58;3.25;;;;;;;0.55;100.00;100388.56;1726458;82;21171;-61
2021/03/03 04:20:42;;;;;;;5.45;3.17;;;;;;;0.55;100.00;100390.31;1738236;81;21208;-62
2021/03/03 04:23:12;;;;;;;6.03;3.17;;;;;;;0.54;100.00;100398.48;1736110;81;21706;-62
2021/03/03 04:25:40;;;;;;;6.70;3.37;;;;;;;0.54;100.00;100399.77;1731896;81;21002;-62
2021/03/03 04:28:08;;;;;;;7.62;3.52;;;;;;;0.55;100.00;100403.14;1737208;81;21290;-62
2021/03/03 04:30:38;;;;;;;5.97;3.22;;;;;;;0.55;100.00;100405.23;1722310;80;21144;-62
2021/03/03 04:33:08;;;;;;;5.12;2.70;;;;;;;0.56;100.00;100402.20;1729134;81;21128;-62
2021/03/03 04:35:39;;;;;;;6.53;3.60;;;;;;;0.56;100.00;100417.12;1711005;82;21021;-61
2021/03/03 04:38:09;;;;;;;5.00;2.70;;;;;;;0.56;100.00;100419.69;1709079;83;21058;-62
2021/03/03 04:40:38;;;;;;;6.33;3.05;;;;;;;0.56;100.00;100417.12;1700144;81;21160;-62
2021/03/03 04:43:06;;;;;;;5.83;3.05;;;;;;;0.58;100.00;100428.09;1698583;82;21587;-62
2021/03/03 04:45:35;;;;;;;4.92;2.90;;;;;;;0.58;100.00;100425.53;1712596;81;21474;-62
2021/03/03 04:48:05;;;;;;;4.72;2.90;;;;;;;0.59;100.00;100437.89;1716914;81;21295;-61
2021/03/03 04:50:33;;;;;;;5.70;3.12;;;;;;;0.61;100.00;100438.60;1721295;80;21145;-62
2021/03/03 04:53:03;;;;;;;5.50;2.83;;;;;;;0.62;100.00;100435.91;1713150;80;21172;-63
2021/03/03 04:55:31;;;;;;;8.78;3.10;;;;;;;0.66;100.00;100440.34;1707733;82;21070;-65
2021/03/03 04:58:00;;;;;;;4.42;2.33;;;;;;;0.68;100.00;100447.45;1709417;80;21478;-66
2021/03/03 05:00:28;;;;;;;5.15;2.60;;;;;;;0.70;100.00;100452.02;1728450;82;22659;-64
2021/03/03 05:02:56;;;;;;;6.70;2.70;;;;;;;0.75;100.00;100452.95;1729811;80;21160;-64
2021/03/03 05:05:25;;;;;;;8.65;3.00;;;;;;;0.77;100.00;100466.02;1721914;81;21065;-72
2021/03/03 05:07:53;;;;;;;6.25;2.92;;;;;;;0.79;100.00;100460.30;1700550;82;21375;-65
2021/03/03 05:10:24;;;;;;;6.17;3.25;;;;;;;0.81;100.00;100464.86;1712985;82;21124;-65
2021/03/03 05:12:53;;;;;;;4.62;2.50;;;;;;;0.86;100.00;100472.20;1718763;81;22028;-65
2021/03/03 05:15:21;;;;;;;5.53;2.75;;;;;;;0.89;100.00;100473.27;1709920;82;20942;-68
2021/03/03 05:17:49;;;;;;;5.53;3.00;;;;;;;0.92;100.00;100473.86;1709891;82;21267;-64
2021/03/03 05:20:19;;;;;;;4.85;2.35;;;;;;;0.96;100.00;100485.98;1727886;81;21141;-65
2021/03/03 05:22:47;;;;;;;5.37;2.33;;;;;;;0.99;100.00;100482.39;1733384;81;21301;-65
2021/03/03 05:25:17;;;;;;;5.75;2.75;;;;;;;1.02;100.00;100485.52;1709030;81;21232;-72
2021/03/03 05:27:45;;;;;;;5.05;2.45;;;;;;;1.05;100.00;100487.04;1737819;81;21055;-64
2021/03/03 05:30:15;;;;;;;4.05;2.02;;;;;;;1.09;100.00;100494.38;1732357;81;21012;-65
2021/03/03 05:32:43;;;;;;;5.58;2.85;;;;;;;1.15;100.00;100493.94;1726319;80;21149;-65
2021/03/03 05:35:12;;;;;;;5.62;2.45;;;;;;;1.21;100.00;100499.90;1725882;82;21648;-64
2021/03/03 05:37:40;;;;;;;4.72;2.55;;;;;;;1.29;100.00;100496.75;1725498;81;22128;-66
2021/03/03 05:40:09;;;;;;;6.62;3.10;;;;;;;1.37;100.00;100497.44;1724859;82;21236;-65
2021/03/03 05:42:37;;;;;;;5.42;2.37;;;;;;;1.48;100.00;100514.13;1722033;81;21578;-64
2021/03/03 05:45:07;;;;;;;5.50;2.52;;;;;;;1.57;100.00;100511.31;1703836;83;21085;-65
2021/03/03 05:47:36;;;;;;;5.70;2.72;;;;;;;1.68;100.00;100519.82;1712504;82;21506;-65
2021/03/03 05:50:06;;;;;;;7.10;2.42;;;;;;;1.79;100.00;100522.03;1706099;83;21321;-65
2021/03/03 05:52:36;;;;;;;5.60;2.45;;;;;;;1.88;100.00;100525.97;1713188;82;21242;-73
2021/03/03 05:55:06;;;;;;;10.70;4.58;;;;;;;1.93;100.00;100521.74;1699311;82;21671;-64
2021/03/03 05:57:34;;;;;;;5.12;2.22;;;;;;;1.99;100.00;100530.27;1694541;82;21132;-66
2021/03/03 06:00:05;;;;;;;6.05;2.50;;;;;;;2.07;100.00;100527.91;1715213;82;21189;-67
2021/03/03 06:02:34;;;;;;;5.78;2.20;;;;;;;2.16;100.00;100528.95;1720382;82;21376;-64
2021/03/03 06:05:03;;;;;;;5.03;2.30;;;;;;;2.24;100.00;100542.02;1693812;83;21119;-64
2021/03/03 06:07:31;;;;;;;6.58;3.10;;;;;;;2.30;100.00;100544.55;1717656;82;21186;-64
2021/03/03 06:10:00;;;;;;;5.85;2.65;;;;;;;2.37;100.00;100534.12;1711378;83;21492;-64
2021/03/03 06:12:29;;;;;;;5.80;2.65;;;;;;;2.44;100.00;100540.41;1686409;83;21103;-64
2021/03/03 06:14:59;;;;;;;6.42;2.65;;;;;;;2.52;100.00;100540.61;1693456;83;21388;-64
2021/03/03 06:17:29;;;;;;;5.55;2.58;;;;;;;2.68;100.00;100544.03;1696090;82;21213;-65
2021/03/03 06:19:57;;;;;;;4.72;1.92;;;;;;;2.89;100.00;100542.77;1699249;82;21116;-63
2021/03/03 06:22:26;;;;;;;5.50;2.40;;;;;;;3.11;100.00;100549.06;1696787;82;21180;-64
2021/03/03 06:24:56;;;;;;;5.87;2.30;;;;;;;3.27;100.00;100550.36;1691004;83;21082;-65
2021/03/03 06:27:25;;;;;;;5.70;2.15;;;;;;;3.36;100.00;100554.73;1689945;83;21454;-64
2021/03/03 06:30:13;;;;;;;4.58;2.67;;;;;;;3.39;100.00;100557.86;1686784;83;21093;-65
2021/03/03 06:32:56;;;;;;;4.83;2.60;;;;;;;3.44;100.00;100554.89;1834064;76;27893;-63
2021/03/03 06:35:44;;;;;;;5.92;2.50;;;;;;;3.46;100.00;100559.45;1793547;79;21000;-63
2021/03/03 06:38:14;;;;;;;4.28;2.35;;;;;;;3.48;100.00;100553.69;1798890;79;21867;-64
2021/03/03 06:40:57;;;;;;;4.00;1.85;;;;;;;3.50;100.00;100565.98;1791798;79;21230;-65
2021/03/03 06:43:30;;;;;;;4.30;2.05;;;;;;;3.54;100.00;100560.91;1794980;79;20887;-66
2021/03/03 06:46:17;;;;;;;4.80;1.90;;;;;;;3.57;100.00;100563.71;1809514;79;20925;-65
2021/03/03 06:48:46;;;;;;;4.80;2.00;;;;;;;3.65;100.00;100574.99;1807811;79;20948;-65
2021/03/03 06:51:33;;;;;;;4.80;2.02;;;;;;;3.66;100.00;100580.48;1747993;81;21385;-65
2021/03/03 06:54:06;;;;;;;6.72;2.58;;;;;;;3.61;100.00;100583.13;1765655;80;21002;-67
2021/03/03 06:56:43;;;;;;;5.75;1.92;;;;;;;3.50;100.00;100589.66;1774756;80;21578;-66
2021/03/03 06:59:30;;;;;;;6.12;2.85;;;;;;;3.40;100.00;100592.17;1765467;80;21648;-69
2021/03/03 07:02:01;;;;;;;4.87;2.52;;;;;;;3.31;100.00;100585.22;1748281;81;20995;-65
2021/03/03 07:04:34;;;;;;;4.40;2.00;;;;;;;3.26;100.00;100592.05;1773094;80;21204;-66
2021/03/03 07:07:11;;;;;;;5.03;2.15;;;;;;;3.25;100.00;100592.16;1773333;80;21566;-68
2021/03/03 07:09:49;;;;;;;4.45;1.98;;;;;;;3.30;100.00;100591.33;1736729;80;20934;-66
2021/03/03 07:12:23;;;;;;;4.20;1.82;;;;;;;3.34;100.00;100591.41;1752800;79;21084;-65
2021/03/03 07:15:07;;;;;;;4.80;1.75;;;;;;;3.37;100.00;100587.27;1745496;81;20988;-65
2021/03/03 07:17:43;;;;;;;3.92;1.92;;;;;;;3.43;100.00;100589.82;1767088;80;22120;-64
2021/03/03 07:20:14;;;;;;;3.87;1.95;;;;;;;3.49;100.00;100593.19;1765042;79;21587;-66
2021/03/03 07:22:51;;;;;;;4.92;2.00;;;;;;;3.56;100.00;100591.25;1771898;79;21421;-64
2021/03/03 07:25:20;;;;;;;3.85;1.37;;;;;;;3.62;100.00;100598.92;1731512;81;20928;-63
2021/03/03 07:27:49;;;;;;;6.35;2.12;;;;;;;3.66;100.00;100593.37;1764309;80;21150;-64
2021/03/03 07:30:22;;;;;;;4.53;1.75;;;;;;;3.75;100.00;100605.98;1779215;79;21370;-64
2021/03/03 07:32:50;;;;;;;4.37;1.50;;;;;;;3.77;100.00;100603.26;1742729;79;21096;-64
2021/03/03 07:35:21;;;;;;;3.67;1.40;;;;;;;3.74;100.00;100594.02;1737700;79;21226;-63
2021/03/03 07:37:53;;;;;;;3.80;1.60;;;;;;;3.73;100.00;100611.73;1742823;79;21029;-69
2021/03/03 07:40:27;;;;;;;3.33;1.37;;;;;;;3.70;100.00;100609.87;1749090;79;21235;-63
2021/03/03 07:42:56;;;;;;;3.95;1.15;;;;;;;3.66;100.00;100615.28;1741708;81;22128;-63
2021/03/03 07:45:39;;;;;;;6.53;2.10;;;;;;;3.62;100.00;100619.07;1749485;79;21156;-68
2021/03/03 07:48:10;;;;;;;6.72;1.95;;;;;;;3.57;100.00;100620.42;1743436;79;21075;-62
2021/03/03 07:50:39;;;;;;;7.62;1.92;;;;;;;3.52;100.00;100623.36;1755956;79;20943;-63
2021/03/03 07:53:08;;;;;;;4.60;1.52;;;;;;;3.47;100.00;100617.78;1744917;79;20946;-62
2021/03/03 07:55:37;;;;;;;3.35;1.50;;;;;;;3.44;100.00;100627.05;1749942;79;21368;-64
2021/03/03 07:58:07;;;;;;;6.58;2.33;;;;;;;3.45;100.00;100620.97;1737193;79;21619;-63
2021/03/03 08:00:37;;;;;;;4.53;1.60;;;;;;;3.47;100.00;100629.38;1744689;79;21163;-64
2021/03/03 08:03:06;;;;;;;5.53;1.85;;;;;;;3.44;100.00;100636.55;1747332;81;21085;-63
2021/03/03 08:05:37;;;;;;;6.75;2.50;;;;;;;3.35;100.00;100635.08;1727678;81;20944;-64
2021/03/03 08:08:23;;;;;;;5.75;2.90;;;;;;;3.32;100.00;100640.95;1747149;79;22352;-64
2021/03/03 08:11:01;;;;;;;8.70;2.92;;;;;;;3.33;100.00;100637.42;1740448;79;21249;-64
2021/03/03 08:13:33;;;;;;;7.90;3.75;;;;;;;3.36;100.00;100626.87;1753938;79;21670;-63
2021/03/03 08:16:04;;;;;;;5.95;1.90;;;;;;;3.38;100.00;100635.30;1748978;79;21183;-63
2021/03/03 08:18:34;;;;;;;3.27;1.45;;;;;;;3.43;100.00;100634.92;1695600;84;21185;-65
2021/03/03 08:21:20;;;;;;;5.22;2.08;;;;;;;3.49;100.00;100631.84;1689049;82;21429;-68
2021/03/03 08:23:58;;;;;;;4.92;1.50;;;;;;;3.59;100.00;100633.98;1766831;79;21043;-63
2021/03/03 08:26:36;;;;;;;4.20;1.20;;;;;;;3.77;100.00;100631.62;1771127;79;21493;-62
2021/03/03 08:29:20;;;;;;;4.53;1.32;;;;;;;3.90;100.00;100634.33;1742165;79;21573;-63
2021/03/03 08:31:48;;;;;;;6.78;2.42;;;;;;;4.13;100.00;100629.78;1750869;79;21148;-62
2021/03/03 08:34:17;;;;;;;6.12;2.67;;;;;;;4.50;100.00;100633.50;1741112;81;22404;-65
2021/03/03 08:36:48;;;;;;;4.42;2.10;;;;;;;5.07;100.00;100640.42;1730674;82;21136;-62
2021/03/03 08:39:21;;;;;;;5.62;2.02;;;;;;;5.71;100.00;100623.39;1738748;79;21132;-63
2021/03/03 08:41:49;;;;;;;4.65;1.72;;;;;;;6.33;100.00;100626.26;1761850;79;21004;-62
2021/03/03 08:44:17;;;;;;;7.28;2.98;;;;;;;6.78;100.00;100625.36;1745286;79;21582;-68
2021/03/03 08:46:48;;;;;;;7.37;2.87;;;;;;;7.17;100.00;100635.41;1748702;79;22147;-62
2021/03/03 08:49:23;;;;;;;5.15;1.32;;;;;;;7.31;100.00;100640.02;1728313;81;21240;-62
2021/03/03 08:51:55;;;;;;;3.83;1.30;;;;;;;7.38;100.00;100643.63;1724244;82;21185;-70
2021/03/03 08:54:44;;;;;;;3.67;1.30;;;;;;;7.21;100.00;100643.20;1716792;80;21551;-62
2021/03/03 08:57:37;;;;;;;3.27;1.03;;;;;;;6.84;100.00;100640.32;1728614;82;21873;-62
2021/03/03 09:00:06;;;;;;;3.70;1.70;;;;;;;6.37;100.00;100644.91;1719839;82;21221;-63
2021/03/03 09:02:37;;;;;;;5.47;2.27;;;;;;;6.00;100.00;100648.38;1733753;82;21609;-64
2021/03/03 09:05:11;;;;;;;4.83;2.00;;;;;;;5.83;100.00;100652.03;1735874;82;21133;-73
2021/03/03 09:07:40;;;;;;;3.85;1.55;;;;;;;5.71;100.00;100655.73;1760270;80;21343;-64
2021/03/03 09:10:15;;;;;;;5.30;1.98;;;;;;;5.47;100.00;100661.39;1731912;80;21037;-61
2021/03/03 09:12:44;;;;;;;5.17;1.82;;;;;;;5.21;100.00;100663.75;1733161;81;22376;-71
2021/03/03 09:15:16;;;;;;;4.28;1.20;;;;;;;4.98;100.00;100672.27;1742042;81;21022;-62
2021/03/03 09:17:46;;;;;;;5.15;1.92;;;;;;;4.78;100.00;100673.22;1739504;81;21194;-62
2021/03/03 09:20:20;;;;;;;5.65;1.90;;;;;;;4.52;100.00;100674.20;1744960;81;20989;-63
2021/03/03 09:22:49;;;;;;;3.37;1.67;;;;;;;4.29;100.00;100690.39;1732812;81;21113;-65
2021/03/03 09:25:20;;;;;;;5.50;2.20;;;;;;;4.08;100.00;100696.89;1717753;82;21384;-63
2021/03/03 09:27:58;;;;;;;7.62;2.90;;;;;;;3.93;100.00;100704.16;1718519;82;21427;-66
2021/03/03 09:30:38;;;;;;;8.13;4.12;;;;;;;3.84;100.00;100710.10;1735483;81;21207;-64
2021/03/03 09:33:07;;;;;;;10.65;4.62;;;;;;;3.77;100.00;100712.84;1753258;79;21070;-64
2021/03/03 09:35:36;;;;;;;6.72;2.40;;;;;;;3.65;100.00;100717.26;1734905;81;21208;-64
2021/03/03 09:38:05;;;;;;;4.47;1.98;;;;;;;3.58;100.00;100723.38;1744987;80;21378;-63
2021/03/03 09:40:34;;;;;;;4.67;2.22;;;;;;;3.57;100.00;100721.76;1699458;81;21060;-65
2021/03/03 09:43:03;;;;;;;3.72;1.42;;;;;;;3.59;100.00;100722.43;1751215;81;21016;-64
2021/03/03 09:45:32;;;;;;;3.92;1.40;;;;;;;3.62;100.00;100725.23;1757257;79;21060;-66
2021/03/03 09:48:01;;;;;;;5.10;2.02;;;;;;;3.66;100.00;100731.30;1740557;80;21198;-75
2021/03/03 09:50:30;;;;;;;4.60;1.70;;;;;;;3.66;100.00;100739.51;1789810;79;21549;-67
2021/03/03 09:52:59;;;;;;;2.98;1.35;;;;;;;3.61;100.00;100728.77;1788615;78;21091;-66
2021/03/03 09:55:35;;;;;;;3.92;1.77;;;;;;;3.57;100.00;100711.45;1741903;81;21607;-66
2021/03/03 09:58:04;;;;;;;4.70;1.72;;;;;;;3.61;100.00;100719.27;1763255;80;21142;-69
2021/03/03 10:00:38;;;;;;;4.33;1.60;;;;;;;3.70;100.00;100732.34;1785745;79;21491;-66
2021/03/03 10:03:13;;;;;;;2.87;1.10;;;;;;;3.80;100.00;100728.06;1794509;78;22372;-69
2021/03/03 10:05:43;;;;;;;5.10;2.08;;;;;;;3.95;100.00;100726.78;1785517;79;21110;-65
2021/03/03 10:08:13;;;;;;;5.70;3.02;;;;;;;4.20;100.00;100724.70;1794373;79;21094;-64
2021/03/03 10:10:44;;;;;;;6.42;1.80;;;;;;;4.66;100.00;100723.34;1790559;79;21156;-65
2021/03/03 10:13:20;;;;;;;5.78;2.52;;;;;;;5.26;100.00;100708.55;1795563;79;21560;-66
2021/03/03 10:15:49;;;;;;;4.40;1.45;;;;;;;5.81;100.00;100707.44;1789221;79;21258;-66
2021/03/03 10:18:21;;;;;;;3.27;1.47;;;;;;;6.26;100.00;100714.52;1733270;82;21266;-65
2021/03/03 10:20:54;;;;;;;4.90;1.98;;;;;;;6.69;100.00;100707.87;1755957;80;21008;-64
2021/03/03 10:23:28;;;;;;;3.62;1.30;;;;;;;7.11;100.00;100708.58;1734208;82;21674;-64
2021/03/03 10:26:05;;;;;;;4.40;1.60;;;;;;;7.34;100.00;100701.95;1757634;79;21536;-63
2021/03/03 10:28:34;;;;;;;3.70;1.33;;;;;;;7.38;100.00;100705.88;1789200;79;21544;-65
2021/03/03 10:31:05;;;;;;;3.42;1.20;;;;;;;7.47;100.00;100700.28;1789534;79;21451;-69
2021/03/03 10:33:38;;;;;;;3.63;1.37;;;;;;;7.65;100.00;100709.30;1778627;79;20995;-69
2021/03/03 10:36:17;;;;;;;4.77;1.70;;;;;;;7.94;100.00;100709.80;1790608;78;21421;-64
2021/03/03 10:38:51;;;;;;;3.20;1.23;;;;;;;8.37;100.00;100708.08;1786282;78;21375;-68
2021/03/03 10:41:25;;;;;;;3.93;1.30;;;;;;;8.75;98.63;100717.56;1723147;81;21429;-72
2021/03/03 10:43:53;;;;;;;4.27;2.00;;;;;;;8.47;76.98;100711.83;1743004;80;21396;-65
2021/03/03 10:46:23;;;;;;;3.13;1.27;;;;;;;7.81;81.61;100719.79;1738343;80;21503;-64
2021/03/03 10:48:58;;;;;;;3.70;1.35;;;;;;;7.43;81.27;100722.30;1733373;80;28466;-65
2021/03/03 10:51:37;;;;;;;6.00;2.07;;;;;;;6.95;80.25;100723.02;1741552;80;21252;-66
2021/03/03 10:54:06;;;;;;;3.70;1.47;;;;;;;6.75;88.10;100726.73;1737573;80;21366;-63
2021/03/03 10:56:43;;;;;;;3.90;1.40;;;;;;;6.89;91.72;100717.61;1739100;81;21301;-65
2021/03/03 11:02:17;;;;;;;4.97;1.80;;;;;;;7.73;73.63;100719.75;1859433;74;22736;-74
2021/03/03 11:04:47;;;;;;;3.97;1.87;;;;;;;7.58;72.65;100721.24;1787930;80;21463;-65
2021/03/03 11:07:16;;;;;;;5.17;2.03;;;;;;;7.42;77.07;100727.13;1784133;78;22060;-68
2021/03/03 11:09:52;;;;;;;6.30;2.10;;;;;;;7.39;79.21;100728.76;1786016;78;21147;-68
2021/03/03 11:12:27;;;;;;;5.97;1.90;;;;;;;7.36;76.72;100731.64;1803609;78;22314;-67
2021/03/03 11:14:56;;;;;;;4.40;1.60;;;;;;;7.23;79.85;100732.01;1808966;78;21313;-66
2021/03/03 11:17:24;;;;;;;4.93;1.90;;;;;;;7.03;81.17;100730.88;1801408;78;21319;-65
2021/03/03 11:19:54;;;;;;;12.57;6.23;;;;;;;6.89;83.59;100739.15;1790889;79;21433;-66
2021/03/03 11:22:22;;;;;;;8.23;3.47;;;;;;;6.80;84.04;100728.39;1810742;78;21880;-64
2021/03/03 11:24:50;;;;;;;5.10;1.90;;;;;;;6.66;83.74;100727.58;1813036;78;21727;-67
2021/03/03 11:27:19;;;;;;;5.63;2.50;;;;;;;6.55;85.78;100734.62;1803297;78;21340;-67
2021/03/03 11:29:47;;;;;;;4.08;1.67;;;;;;;6.44;79.79;100741.28;1807650;77;21466;-64
2021/03/03 11:32:17;;;;;;;3.63;1.70;;;;;;;6.16;80.23;100746.10;1778314;78;21399;-65
2021/03/03 11:34:47;;;;;;;4.42;1.32;;;;;;;5.81;87.69;100738.48;1778691;79;23042;-64
2021/03/03 11:37:16;;;;;;;3.95;1.47;;;;;;;5.55;94.97;100747.31;1802216;78;20993;-64
2021/03/03 11:39:44;;;;;;;6.53;2.37;;;;;;;5.34;100.00;100753.47;1800201;78;21021;-67
2021/03/03 11:42:12;;;;;;;4.50;1.22;;;;;;;5.11;100.00;100751.63;1807870;78;20919;-66
2021/03/03 11:44:41;;;;;;;6.03;1.80;;;;;;;4.91;100.00;100759.00;1788082;78;21356;-67
2021/03/03 11:47:10;;;;;;;5.87;2.33;;;;;;;4.83;100.00;100765.31;1785024;78;21445;-65
2021/03/03 11:49:38;;;;;;;5.25;2.22;;;;;;;4.95;100.00;100768.59;1787151;79;21597;-66
2021/03/03 11:52:06;;;;;;;8.63;4.50;;;;;;;5.27;100.00;100761.42;1772759;79;21224;-74
2021/03/03 11:54:35;;;;;;;4.78;1.87;;;;;;;5.72;100.00;100760.00;1797524;78;21256;-65
2021/03/03 11:57:04;;;;;;;6.37;2.08;;;;;;;6.09;100.00;100768.66;1785194;78;22651;-66
2021/03/03 11:59:33;;;;;;;4.20;1.62;;;;;;;6.38;88.59;100771.63;1785022;79;21563;-68
2021/03/03 12:02:03;;;;;;;4.87;1.82;;;;;;;6.49;76.25;100768.85;1767334;79;21168;-70
2021/03/03 12:04:33;;;;;;;7.12;4.67;;;;;;;6.54;70.97;100774.41;1788927;78;21416;-64
2021/03/03 12:07:02;;;;;;;3.90;1.80;;;;;;;6.62;75.44;100785.83;1805832;77;21175;-71
2021/03/03 12:09:30;;;;;;;3.00;1.25;;;;;;;6.85;76.00;100785.76;1810238;78;21392;-66
2021/03/03 12:12:01;;;;;;;4.00;1.65;;;;;;;7.13;70.58;100783.95;1764580;80;21067;-64
2021/03/03 12:14:30;;;;;;;1.80;0.60;;;;;;;7.40;67.26;100782.25;1776927;79;21186;-64
2021/03/03 12:17:02;;;;;;;1.85;0.57;;;;;;;7.54;62.31;100790.80;1808859;78;22328;-67
2021/03/03 12:19:33;;;;;;;4.60;1.07;;;;;;;7.59;59.57;100804.62;1799087;78;21085;-72
2021/03/03 12:22:02;;;;;;;5.03;1.77;;;;;;;7.60;59.33;100797.16;1794384;77;21378;-66
2021/03/03 12:24:31;;;;;;;4.40;1.17;;;;;;;7.68;59.21;100805.81;1796373;77;21093;-66
2021/03/03 12:27:00;;;;;;;3.50;1.00;;;;;;;7.69;56.87;100802.27;1795410;78;21449;-68
2021/03/03 12:29:30;;;;;;;2.77;1.23;;;;;;;7.54;52.06;100795.99;1798580;78;21503;-75
2021/03/03 12:31:58;;;;;;;2.98;1.30;;;;;;;7.21;53.79;100811.73;1808655;78;21329;-64
2021/03/03 12:34:27;;;;;;;8.80;2.93;;;;;;;6.85;56.77;100818.15;1797471;78;21194;-65
2021/03/03 12:36:56;;;;;;;4.42;1.60;;;;;;;6.46;56.84;100824.00;1802530;78;21875;-66
2021/03/03 12:39:24;;;;;;;6.83;2.52;;;;;;;6.01;56.49;100822.08;1802811;78;20998;-66
2021/03/03 12:41:53;;;;;;;2.90;1.15;;;;;;;5.60;56.34;100829.16;1792492;78;21011;-67
2021/03/03 12:44:22;;;;;;;2.92;0.93;;;;;;;5.28;58.57;100834.13;1805390;78;21664;-66
2021/03/03 12:46:52;;;;;;;4.40;1.05;;;;;;;5.11;62.75;100835.62;1782082;80;22530;-66
2021/03/03 12:49:21;;;;;;;2.95;1.00;;;;;;;5.03;66.15;100839.79;1763139;79;21225;-63
2021/03/03 12:51:49;;;;;;;3.30;1.12;;;;;;;5.07;68.96;100835.98;1768953;80;21213;-65
2021/03/03 12:54:18;;;;;;;2.45;0.80;;;;;;;5.29;74.84;100838.34;1769537;79;21204;-64
2021/03/03 12:56:47;;;;;;;3.72;1.05;;;;;;;5.65;73.06;100819.73;1746936;79;21650;-67
2021/03/03 12:59:17;;;;;;;1.65;0.80;;;;;;;5.94;65.22;100823.11;1765646;79;21459;-71
2021/03/03 13:01:47;;;;;;;3.85;0.85;;;;;;;6.19;62.01;100820.89;1769367;78;21067;-70
2021/03/03 13:04:16;;;;;;;2.47;0.98;;;;;;;6.37;60.08;100823.57;1783254;78;20956;-65
2021/03/03 13:06:45;;;;;;;3.15;1.00;;;;;;;6.55;59.74;100823.13;1781120;78;21605;-66
2021/03/03 13:09:15;;;;;;;4.63;2.17;;;;;;;6.75;58.00;100816.92;1791154;79;21004;-68
2021/03/03 13:11:45;;;;;;;5.58;2.10;;;;;;;6.83;58.00;100825.27;1786390;79;21916;-67
2021/03/03 13:14:13;;;;;;;5.33;2.27;;;;;;;6.73;55.86;100838.26;1781150;79;21083;-67
2021/03/03 13:16:42;;;;;;;5.37;2.12;;;;;;;6.43;58.22;100825.58;1763319;78;21067;-67
2021/03/03 13:19:11;;;;;;;3.85;1.72;;;;;;;6.14;62.12;100834.26;1773242;78;20988;-73
2021/03/03 13:21:39;;;;;;;5.95;2.33;;;;;;;5.85;66.01;100836.86;1766621;79;21047;-66
2021/03/03 13:24:09;;;;;;;6.15;1.75;;;;;;;5.50;69.99;100833.06;1770515;79;21374;-68
2021/03/03 13:26:38;;;;;;;3.42;1.00;;;;;;;5.32;75.15;100840.66;1767843;78;21063;-66
2021/03/03 13:29:06;;;;;;;3.72;1.30;;;;;;;5.29;71.58;100843.98;1782609;78;21001;-68
2021/03/03 13:31:36;;;;;;;5.03;1.47;;;;;;;5.25;68.77;100842.62;1767586;79;21230;-68
2021/03/03 13:34:05;;;;;;;4.20;1.45;;;;;;;5.26;70.74;100850.23;1784510;79;22324;-68
2021/03/03 13:36:33;;;;;;;2.17;0.70;;;;;;;5.39;72.25;100850.00;1769446;79;21382;-68
2021/03/03 13:39:03;;;;;;;3.20;1.00;;;;;;;5.55;68.98;100846.39;1788623;79;21195;-69
2021/03/03 13:41:33;;;;;;;3.87;1.25;;;;;;;5.68;64.95;100840.13;1758249;79;21296;-70
2021/03/03 13:44:02;;;;;;;4.10;1.00;;;;;;;5.74;61.50;100840.88;1784823;78;21197;-67
2021/03/03 13:46:32;;;;;;;7.05;3.30;;;;;;;5.72;61.30;100844.06;1790819;79;22341;-68
2021/03/03 13:49:01;;;;;;;2.30;0.72;;;;;;;5.68;60.38;100851.28;1782885;79;22087;-68
2021/03/03 13:51:33;;;;;;;2.42;0.70;;;;;;;5.58;60.37;100846.13;1767588;78;21277;-63
2021/03/03 13:54:01;;;;;;;2.80;1.15;;;;;;;5.45;61.06;100857.67;1757910;79;21008;-63
2021/03/03 13:56:31;;;;;;;2.77;0.90;;;;;;;5.32;63.28;100857.95;1781669;79;21095;-66
2021/03/03 13:59:00;;;;;;;2.58;1.10;;;;;;;5.23;63.21;100862.16;1787714;79;21166;-66
2021/03/03 14:01:28;;;;;;;3.60;0.90;;;;;;;5.15;64.56;100858.58;1774416;79;21257;-68
2021/03/03 14:03:57;;;;;;;2.02;0.70;;;;;;;5.04;65.24;100861.64;1737278;81;21091;-65
2021/03/03 14:06:25;;;;;;;2.65;0.88;;;;;;;4.92;65.37;100855.40;1765422;80;21135;-65
2021/03/03 14:08:53;;;;;;;2.55;0.80;;;;;;;4.82;66.44;100855.38;1771739;80;21218;-72
2021/03/03 14:11:23;;;;;;;6.53;2.27;;;;;;;4.70;65.97;100857.25;1762687;80;21573;-67
2021/03/03 14:13:51;;;;;;;4.20;1.52;;;;;;;4.53;67.30;100861.71;1757015;81;21255;-67
2021/03/03 14:16:20;;;;;;;4.28;1.10;;;;;;;4.40;69.41;100868.38;1758557;81;21373;-67
2021/03/03 14:18:49;;;;;;;3.40;1.10;;;;;;;4.30;71.32;100863.64;1755615;81;21182;-65
2021/03/03 14:21:19;;;;;;;1.80;0.80;;;;;;;4.15;70.65;100869.59;1759732;80;21636;-65
2021/03/03 14:23:48;;;;;;;5.05;1.60;;;;;;;4.00;73.50;100874.23;1764502;80;21733;-65
2021/03/03 14:26:17;;;;;;;4.47;1.65;;;;;;;3.84;73.94;100879.02;1768612;80;22289;-65
2021/03/03 14:28:46;;;;;;;4.25;2.02;;;;;;;3.68;74.08;100891.04;1770851;80;21065;-67
2021/03/03 14:31:14;;;;;;;4.12;1.50;;;;;;;3.52;76.89;100887.55;1776420;78;21092;-66
2021/03/03 14:33:43;;;;;;;2.75;0.85;;;;;;;3.39;79.17;100886.42;1766911;80;21226;-65
2021/03/03 14:36:12;;;;;;;4.17;1.22;;;;;;;3.28;78.91;100893.36;1767746;80;21487;-64
2021/03/03 14:38:42;;;;;;;2.45;1.15;;;;;;;3.14;81.54;100893.98;1771928;80;22259;-63
2021/03/03 14:41:11;;;;;;;4.33;2.00;;;;;;;3.02;81.55;100900.53;1769452;80;21650;-65
2021/03/03 14:43:41;;;;;;;6.92;3.12;;;;;;;2.87;84.79;100896.09;1773646;80;21175;-64
2021/03/03 14:46:10;;;;;;;3.17;1.30;;;;;;;2.75;85.74;100902.18;1767140;80;20990;-66
2021/03/03 14:48:39;;;;;;;4.53;1.75;;;;;;;2.62;88.22;100899.73;1770431;80;21120;-71
2021/03/03 14:51:07;;;;;;;2.90;1.02;;;;;;;2.49;89.37;100903.67;1773365;80;22922;-65
2021/03/03 14:53:36;;;;;;;3.90;1.40;;;;;;;2.40;90.47;100913.38;1779256;79;21014;-64
2021/03/03 14:56:05;;;;;;;3.37;1.20;;;;;;;2.29;90.19;100914.63;1755087;81;21120;-65
2021/03/03 14:58:34;;;;;;;5.08;1.17;;;;;;;2.16;91.85;100914.25;1757947;81;21173;-70
2021/03/03 15:01:03;;;;;;;2.47;1.07;;;;;;;2.07;93.08;100918.77;1746515;80;21227;-65
2021/03/03 15:03:33;;;;;;;3.10;1.00;;;;;;;1.97;94.79;100918.25;1762347;80;21336;-66
2021/03/03 15:06:02;;;;;;;2.80;1.00;;;;;;;1.87;97.31;100920.69;1769247;80;20993;-64
2021/03/03 15:08:31;;;;;;;3.47;0.98;;;;;;;1.77;100.00;100927.41;1755492;81;21072;-67
2021/03/03 15:10:59;;;;;;;3.90;1.65;;;;;;;1.67;100.00;100927.27;1769024;80;21210;-65
2021/03/03 15:13:28;;;;;;;3.95;1.42;;;;;;;1.57;100.00;100927.55;1738735;80;21174;-65
2021/03/03 15:15:57;;;;;;;2.85;1.50;;;;;;;1.46;100.00;100932.97;1744879;81;21259;-64
2021/03/03 15:18:27;;;;;;;5.65;1.50;;;;;;;1.36;100.00;100932.42;1739117;81;21226;-72
2021/03/03 15:20:55;;;;;;;6.12;1.90;;;;;;;1.25;100.00;100929.34;1746525;79;22613;-67
2021/03/03 15:23:25;;;;;;;4.67;1.70;;;;;;;1.15;100.00;100933.47;1739339;81;21262;-69
2021/03/03 15:25:53;;;;;;;5.97;1.70;;;;;;;1.04;100.00;100945.75;1755457;81;21181;-63
2021/03/03 15:28:22;;;;;;;5.05;2.05;;;;;;;0.93;100.00;100943.91;1741130;81;22658;-70
2021/03/03 15:30:51;;;;;;;7.58;1.70;;;;;;;0.83;100.00;100947.19;1748858;81;21250;-64
2021/03/03 15:33:19;;;;;;;4.75;1.50;;;;;;;0.74;100.00;100956.34;1748236;81;21195;-64
2021/03/03 15:35:49;;;;;;;3.52;1.37;;;;;;;0.64;100.00;100951.45;1751296;81;21259;-65
2021/03/03 15:38:18;;;;;;;3.95;1.20;;;;;;;0.56;100.00;100958.37;1742548;81;21124;-73
2021/03/03 15:40:46;;;;;;;3.25;1.20;;;;;;;0.49;100.00;100959.69;1742945;81;21459;-63
2021/03/03 15:43:16;;;;;;;3.90;1.15;;;;;;;0.42;100.00;100963.14;1757758;81;21565;-65
2021/03/03 15:45:45;;;;;;;2.90;1.00;;;;;;;0.36;100.00;100966.56;1754609;81;21195;-68
2021/03/03 15:48:14;;;;;;;2.37;1.02;;;;;;;0.31;100.00;100967.33;1751432;81;21506;-72